createdAt,value
2023-03-26T00:02:46.107Z,1.40
2023-03-26T00:07:48.707Z,1.40
2023-03-26T00:12:50.243Z,1.38
2023-03-26T00:17:54.153Z,1.85
2023-03-26T00:22:56.291Z,1.55
2023-03-26T00:27:58.451Z,1.48
2023-03-26T00:33:00.147Z,1.40
2023-03-26T00:38:01.756Z,1.13
2023-03-26T00:43:10.178Z,1.33
2023-03-26T00:48:12.821Z,1.30
2023-03-26T00:53:15.535Z,1.40
2023-03-26T00:58:17.133Z,1.10
2023-03-26T01:03:28.080Z,1.10
2023-03-26T01:08:49.003Z,0.98
2023-03-26T01:13:54.619Z,1.33
2023-03-26T01:18:58.751Z,1.08
2023-03-26T01:24:05.366Z,1.50
2023-03-26T01:29:11.461Z,1.05
2023-03-26T01:34:30.560Z,1.08
2023-03-26T01:39:38.844Z,1.00
2023-03-26T01:45:32.753Z,1.17
2023-03-26T01:50:34.320Z,1.20
2023-03-26T01:55:53.947Z,0.90
2023-03-26T02:01:06.942Z,0.80
2023-03-26T02:06:26.792Z,0.90
2023-03-26T02:11:35.463Z,1.10
2023-03-26T02:16:37.493Z,0.93
2023-03-26T02:21:39.438Z,1.10
2023-03-26T02:26:41.227Z,1.00
2023-03-26T02:31:48.290Z,1.05
2023-03-26T02:36:50.094Z,0.90
2023-03-26T02:41:52.019Z,1.20
2023-03-26T02:46:54.165Z,1.17
2023-03-26T02:52:18.513Z,1.05
2023-03-26T02:57:24.725Z,1.10
2023-03-26T03:02:32.367Z,0.80
2023-03-26T03:07:46.815Z,0.90
2023-03-26T03:12:48.732Z,1.08
2023-03-26T03:17:50.537Z,1.10
2023-03-26T03:22:52.466Z,0.90
2023-03-26T03:27:54.286Z,0.85
2023-03-26T03:32:58.368Z,1.00
2023-03-26T03:38:00.628Z,1.08
2023-03-26T03:43:06.114Z,1.08
2023-03-26T03:48:18.822Z,1.17
2023-03-26T03:53:25.917Z,1.20
2023-03-26T03:58:31.080Z,1.00
2023-03-26T04:03:40.365Z,0.98
2023-03-26T04:08:46.770Z,1.00
2023-03-26T04:13:48.905Z,1.08
2023-03-26T04:19:02.289Z,1.10
2023-03-26T04:24:04.990Z,1.10
2023-03-26T04:29:27.727Z,1.33
2023-03-26T04:34:29.901Z,1.27
2023-03-26T04:39:38.965Z,1.27
2023-03-26T04:44:59.884Z,1.35
2023-03-26T04:50:06.623Z,1.25
2023-03-26T04:55:33.553Z,1.25
2023-03-26T05:00:43.318Z,1.23
2023-03-26T05:05:45.352Z,1.10
2023-03-26T05:10:47.244Z,1.40
2023-03-26T05:15:58.518Z,1.40
2023-03-26T05:21:11.226Z,1.30
2023-03-26T05:26:14.651Z,1.20
2023-03-26T05:31:18.827Z,1.30
2023-03-26T05:36:23.013Z,1.33
2023-03-26T05:41:36.517Z,1.30
2023-03-26T05:46:38.868Z,1.30
2023-03-26T05:51:41.295Z,1.40
2023-03-26T05:57:04.501Z,1.42
2023-03-26T06:02:25.150Z,1.23
2023-03-26T06:07:52.864Z,1.40
2023-03-26T06:12:55.425Z,1.25
2023-03-26T06:17:57.851Z,1.50
2023-03-26T06:23:32.085Z,1.40
2023-03-26T06:29:02.683Z,1.40
2023-03-26T06:34:14.879Z,1.20
2023-03-26T06:39:16.763Z,1.33
2023-03-26T06:44:37.108Z,1.20
2023-03-26T06:49:58.972Z,1.30
2023-03-26T06:55:13.990Z,0.98
2023-03-26T07:00:24.196Z,1.48
2023-03-26T07:05:44.156Z,1.55
2023-03-26T07:10:46.528Z,1.30
2023-03-26T07:16:07.299Z,1.30
2023-03-26T07:21:25.898Z,1.40
2023-03-26T07:26:55.639Z,1.40
2023-03-26T07:32:36.472Z,1.58
2023-03-26T07:38:20.968Z,1.70
2023-03-26T07:43:44.048Z,1.50
2023-03-26T07:49:12.831Z,1.33
2023-03-26T07:54:27.125Z,1.40
2023-03-26T07:59:51.612Z,1.15
2023-03-26T08:05:10.425Z,1.45
2023-03-26T08:11:07.285Z,1.23
2023-03-26T08:16:36.377Z,1.27
2023-03-26T08:21:42.147Z,1.40
2023-03-26T08:27:01.489Z,1.48
2023-03-26T08:32:05.255Z,1.65
2023-03-26T08:37:06.829Z,1.30
2023-03-26T08:42:30.145Z,1.52
2023-03-26T08:47:39.872Z,1.50
2023-03-26T08:53:00.888Z,1.58
2023-03-26T08:58:34.984Z,1.50
2023-03-26T09:04:01.718Z,1.55
2023-03-26T09:09:20.325Z,1.50
2023-03-26T09:14:21.834Z,1.50
2023-03-26T09:19:48.260Z,1.58
2023-03-26T09:25:11.375Z,1.52
2023-03-26T09:30:47.129Z,1.42
2023-03-26T09:35:54.095Z,1.58
2023-03-26T09:41:27.761Z,1.35
2023-03-26T09:46:47.886Z,1.50
2023-03-26T09:52:36.941Z,1.85
2023-03-26T09:58:03.334Z,1.40
2023-03-26T10:03:29.635Z,1.30
2023-03-26T10:08:47.312Z,1.60
2023-03-26T10:14:08.385Z,2.13
2023-03-26T10:19:19.763Z,1.50
2023-03-26T10:24:24.400Z,1.30
2023-03-26T10:30:10.166Z,1.13
2023-03-26T10:35:22.369Z,1.40
2023-03-26T10:40:31.729Z,1.30
2023-03-26T10:45:45.741Z,1.40
2023-03-26T10:51:02.588Z,1.58
2023-03-26T10:56:32.927Z,1.42
2023-03-26T11:01:56.917Z,1.58
2023-03-26T11:07:10.760Z,1.58
2023-03-26T11:12:47.369Z,1.30
2023-03-26T11:18:04.067Z,1.40
2023-03-26T11:23:20.679Z,1.60
2023-03-26T11:28:40.374Z,1.20
2023-03-26T11:33:45.553Z,1.30
2023-03-26T11:38:50.522Z,1.48
2023-03-26T11:44:13.706Z,1.40
2023-03-26T11:49:18.314Z,1.60
2023-03-26T11:54:21.040Z,1.35
2023-03-26T11:59:30.270Z,1.80
2023-03-26T12:05:14.952Z,1.40
2023-03-26T12:10:28.489Z,1.50
2023-03-26T12:15:32.140Z,1.45
2023-03-26T12:20:36.659Z,1.40
2023-03-26T12:25:39.125Z,1.25
2023-03-26T12:30:44.949Z,1.52
2023-03-26T12:35:46.583Z,1.60
2023-03-26T12:40:50.546Z,1.02
2023-03-26T12:46:03.739Z,1.42
2023-03-26T12:51:49.369Z,1.35
2023-03-26T12:57:18.193Z,1.65
2023-03-26T13:02:59.030Z,1.20
2023-03-26T13:08:19.080Z,1.25
2023-03-26T13:13:21.462Z,1.50
2023-03-26T13:18:48.181Z,1.30
2023-03-26T13:24:00.585Z,1.52
2023-03-26T13:29:25.627Z,1.50
2023-03-26T13:34:38.117Z,1.40
2023-03-26T13:40:00.281Z,1.30
2023-03-26T13:45:10.780Z,1.45
2023-03-26T13:50:22.709Z,1.23
2023-03-26T13:55:37.427Z,1.60
2023-03-26T14:01:21.893Z,1.45
2023-03-26T14:06:23.490Z,1.52
2023-03-26T14:11:50.396Z,1.23
2023-03-26T14:16:57.959Z,1.33
2023-03-26T14:22:05.181Z,1.25
2023-03-26T14:27:21.787Z,1.20
2023-03-26T14:32:50.836Z,1.30
2023-03-26T14:37:58.637Z,1.38
2023-03-26T14:43:15.331Z,1.40
2023-03-26T14:48:34.802Z,1.65
2023-03-26T14:53:40.200Z,1.33
2023-03-26T14:58:44.366Z,1.60
2023-03-26T15:04:04.827Z,1.38
2023-03-26T15:09:30.347Z,1.40
2023-03-26T15:14:50.966Z,1.27
2023-03-26T15:20:26.075Z,1.20
2023-03-26T15:25:46.444Z,1.40
2023-03-26T15:31:06.626Z,1.10
2023-03-26T15:36:21.387Z,1.20
2023-03-26T15:41:49.478Z,1.33
2023-03-26T15:46:58.323Z,1.17
2023-03-26T15:52:18.954Z,1.00
2023-03-26T15:57:31.543Z,1.10
2023-03-26T16:02:53.714Z,1.10
2023-03-26T16:08:04.410Z,1.38
2023-03-26T16:13:27.927Z,1.10
2023-03-26T16:18:58.409Z,1.30
2023-03-26T16:24:03.075Z,1.50
2023-03-26T16:29:16.653Z,1.58
2023-03-26T16:34:27.198Z,1.52
2023-03-26T16:39:44.258Z,1.33
2023-03-26T16:45:12.378Z,1.50
2023-03-26T16:50:36.259Z,1.50
2023-03-26T16:55:47.977Z,1.23
2023-03-26T17:00:53.704Z,1.63
2023-03-26T17:05:58.379Z,1.30
2023-03-26T17:11:08.853Z,1.58
2023-03-26T17:16:24.429Z,1.45
2023-03-26T17:21:46.318Z,1.90
2023-03-26T17:26:58.066Z,1.50
2023-03-26T17:32:17.960Z,1.60
2023-03-26T17:37:19.464Z,1.50
2023-03-26T17:42:35.366Z,2.10
2023-03-26T17:47:38.233Z,2.13
2023-03-26T17:52:59.918Z,1.70
2023-03-26T17:58:03.869Z,1.60
2023-03-26T18:03:44.196Z,1.75
2023-03-26T18:08:53.291Z,1.40
2023-03-26T18:14:08.780Z,1.60
2023-03-26T18:19:22.494Z,1.45
2023-03-26T18:24:33.188Z,1.60
2023-03-26T18:29:35.653Z,1.60
2023-03-26T18:34:39.891Z,1.70
2023-03-26T18:39:44.151Z,1.83
2023-03-26T18:44:48.287Z,1.60
2023-03-26T18:49:53.944Z,1.30
2023-03-26T18:54:56.864Z,1.38
2023-03-26T19:00:15.578Z,1.35
2023-03-26T19:05:18.681Z,1.60
2023-03-26T19:10:22.085Z,1.50
2023-03-26T19:15:26.058Z,1.42
2023-03-26T19:20:29.953Z,1.27
2023-03-26T19:25:36.875Z,1.40
2023-03-26T19:30:40.686Z,1.27
2023-03-26T19:35:45.366Z,1.48
2023-03-26T19:40:47.082Z,1.60
2023-03-26T19:45:59.748Z,2.00
2023-03-26T19:51:06.104Z,1.83
2023-03-26T19:56:12.992Z,1.88
2023-03-26T20:01:20.097Z,1.45
2023-03-26T20:06:30.766Z,2.00
2023-03-26T20:11:38.702Z,1.50
2023-03-26T20:16:42.100Z,1.50
2023-03-26T20:21:44.764Z,1.70
2023-03-26T20:26:46.602Z,1.85
2023-03-26T20:31:49.278Z,1.48
2023-03-26T20:37:01.315Z,1.80
2023-03-26T20:42:03.264Z,1.92
2023-03-26T20:47:04.869Z,1.70
2023-03-26T20:52:06.522Z,1.90
2023-03-26T20:57:09.491Z,1.95
2023-03-26T21:02:12.108Z,1.92
2023-03-26T21:07:18.076Z,1.80
2023-03-26T21:12:32.271Z,2.33
2023-03-26T21:17:34.205Z,2.10
2023-03-26T21:23:06.459Z,2.35
2023-03-26T21:28:22.242Z,2.30
2023-03-26T21:33:28.328Z,1.85
2023-03-26T21:38:32.329Z,2.10
2023-03-26T21:43:33.921Z,2.25
2023-03-26T21:48:35.843Z,2.33
2023-03-26T21:53:37.583Z,2.03
2023-03-26T21:59:05.640Z,1.88
2023-03-26T22:04:18.947Z,1.80
2023-03-26T22:09:30.042Z,1.60
2023-03-26T22:14:38.038Z,1.50
2023-03-26T22:19:39.675Z,1.60
2023-03-26T22:24:41.271Z,1.58
2023-03-26T22:29:43.135Z,1.40
2023-03-26T22:34:44.970Z,1.20
2023-03-26T22:39:46.575Z,1.40
2023-03-26T22:44:48.259Z,1.50
2023-03-26T22:49:49.814Z,1.30
2023-03-26T22:54:51.848Z,1.27
2023-03-26T22:59:53.389Z,1.20
2023-03-26T23:04:55.014Z,1.40
2023-03-26T23:09:57.082Z,1.30
2023-03-26T23:14:58.701Z,1.60
2023-03-26T23:20:00.658Z,1.30
2023-03-26T23:25:02.251Z,1.30
2023-03-26T23:30:04.940Z,1.20
2023-03-26T23:35:07.033Z,1.33
2023-03-26T23:40:10.351Z,1.23
2023-03-26T23:45:13.034Z,1.25
2023-03-26T23:50:14.764Z,1.30
2023-03-26T23:55:16.490Z,1.55
